createdAt,value
2017-06-08T00:00:06.802Z,12.60
2017-06-08T00:02:35.014Z,12.60
2017-06-08T00:05:03.090Z,12.60
2017-06-08T00:07:31.314Z,12.50
2017-06-08T00:09:59.404Z,12.50
2017-06-08T00:12:27.852Z,12.50
2017-06-08T00:14:55.962Z,12.40
2017-06-08T00:17:24.087Z,12.40
2017-06-08T00:19:52.194Z,12.40
2017-06-08T00:22:21.062Z,12.30
2017-06-08T00:24:49.204Z,12.30
2017-06-08T00:27:17.319Z,12.30
2017-06-08T00:29:45.447Z,12.30
2017-06-08T00:32:14.332Z,12.40
2017-06-08T00:34:42.453Z,12.50
2017-06-08T00:37:10.589Z,12.50
2017-06-08T00:39:38.683Z,12.50
2017-06-08T00:42:06.809Z,12.50
2017-06-08T00:44:34.922Z,12.50
2017-06-08T00:47:03.018Z,12.60
2017-06-08T00:49:31.151Z,12.60
2017-06-08T00:51:59.349Z,12.70
2017-06-08T00:54:27.463Z,12.60
2017-06-08T00:56:55.586Z,12.60
2017-06-08T00:59:23.696Z,12.60
2017-06-08T01:01:51.802Z,12.60
2017-06-08T01:04:19.948Z,12.60
2017-06-08T01:06:48.056Z,12.60
2017-06-08T01:09:16.159Z,12.50
2017-06-08T01:11:44.261Z,12.50
2017-06-08T01:14:12.382Z,12.50
2017-06-08T01:16:40.494Z,12.40
2017-06-08T01:19:08.590Z,12.30
2017-06-08T01:21:36.738Z,12.20
2017-06-08T01:24:04.808Z,12.20
2017-06-08T01:26:32.914Z,12.20
2017-06-08T01:29:01.054Z,12.20
2017-06-08T01:31:29.179Z,12.20
2017-06-08T01:33:57.290Z,12.10
2017-06-08T01:36:25.396Z,12.20
2017-06-08T01:38:53.739Z,12.20
2017-06-08T01:41:21.862Z,12.10
2017-06-08T01:43:49.977Z,12.10
2017-06-08T01:46:18.108Z,12.10
2017-06-08T01:48:47.022Z,12.00
2017-06-08T01:51:15.141Z,12.00
2017-06-08T01:53:43.253Z,12.00
2017-06-08T01:56:11.389Z,11.90
2017-06-08T01:58:40.245Z,12.00
2017-06-08T02:01:09.343Z,12.00
2017-06-08T02:03:37.430Z,12.00
2017-06-08T02:06:05.547Z,12.00
2017-06-08T02:08:33.656Z,12.00
2017-06-08T02:11:01.787Z,12.00
2017-06-08T02:13:29.918Z,12.00
2017-06-08T02:15:58.029Z,12.00
2017-06-08T02:18:27.124Z,12.00
2017-06-08T02:20:55.232Z,11.90
2017-06-08T02:23:23.345Z,11.90
2017-06-08T02:25:52.842Z,11.70
2017-06-08T02:28:20.922Z,11.70
2017-06-08T02:30:49.036Z,11.60
2017-06-08T02:33:17.146Z,11.70
2017-06-08T02:35:46.307Z,11.80
2017-06-08T02:38:14.441Z,12.00
2017-06-08T02:40:42.547Z,12.00
2017-06-08T02:43:11.339Z,11.90
2017-06-08T02:45:39.479Z,11.90
2017-06-08T02:48:07.610Z,12.00
2017-06-08T02:50:35.751Z,12.10
2017-06-08T02:53:03.855Z,12.20
2017-06-08T02:55:31.986Z,12.20
2017-06-08T02:58:00.134Z,12.30
2017-06-08T03:00:28.268Z,12.40
2017-06-08T03:02:57.149Z,12.60
2017-06-08T03:05:25.237Z,12.60
2017-06-08T03:07:53.365Z,12.70
2017-06-08T03:10:21.528Z,12.70
2017-06-08T03:12:49.667Z,12.70
2017-06-08T03:15:18.535Z,12.90
2017-06-08T03:17:46.634Z,12.80
2017-06-08T03:20:14.767Z,12.90
2017-06-08T03:22:42.867Z,12.90
2017-06-08T03:25:11.387Z,12.90
2017-06-08T03:27:39.503Z,12.90
2017-06-08T03:30:07.586Z,12.90
2017-06-08T03:32:36.732Z,12.80
2017-06-08T03:35:04.854Z,12.80
2017-06-08T03:37:32.962Z,12.80
2017-06-08T03:40:01.270Z,12.90
2017-06-08T03:42:29.391Z,13.00
2017-06-08T03:44:57.515Z,13.10
2017-06-08T03:47:25.608Z,13.20
2017-06-08T03:49:56.303Z,13.30
2017-06-08T03:52:24.391Z,13.30
2017-06-08T03:54:52.506Z,13.40
2017-06-08T03:57:20.610Z,13.40
2017-06-08T04:00:00.478Z,13.50
2017-06-08T04:02:28.572Z,13.60
2017-06-08T04:04:57.440Z,13.60
2017-06-08T04:07:25.557Z,13.60
2017-06-08T04:09:53.658Z,13.60
2017-06-08T04:12:25.826Z,13.80
2017-06-08T04:14:54.966Z,13.90
2017-06-08T04:17:23.217Z,13.90
2017-06-08T04:19:51.381Z,13.90
2017-06-08T04:22:19.491Z,13.80
2017-06-08T04:24:47.595Z,13.80
2017-06-08T04:27:15.763Z,13.80
2017-06-08T04:29:43.957Z,13.80
2017-06-08T04:32:12.037Z,13.90
2017-06-08T04:34:43.386Z,13.90
2017-06-08T04:37:12.392Z,13.90
2017-06-08T04:39:40.510Z,13.90
2017-06-08T04:42:08.620Z,13.90
2017-06-08T04:44:37.492Z,13.80
2017-06-08T04:47:13.382Z,13.80
2017-06-08T04:49:41.527Z,13.80
2017-06-08T04:52:09.665Z,13.80
2017-06-08T04:54:38.159Z,13.80
2017-06-08T04:57:06.240Z,13.80
2017-06-08T04:59:36.252Z,13.90
2017-06-08T05:02:04.354Z,14.00
2017-06-08T05:04:32.486Z,14.20
2017-06-08T05:07:01.360Z,15.20
2017-06-08T05:09:29.471Z,15.20
2017-06-08T05:11:57.591Z,15.80
2017-06-08T05:14:25.728Z,15.70
2017-06-08T05:16:54.733Z,15.60
2017-06-08T05:19:22.859Z,15.60
2017-06-08T05:21:50.980Z,15.70
2017-06-08T05:24:19.094Z,15.90
2017-06-08T05:26:47.731Z,16.00
2017-06-08T05:29:15.895Z,15.90
2017-06-08T05:31:44.055Z,16.10
2017-06-08T05:34:13.744Z,16.10
2017-06-08T05:36:42.607Z,16.10
2017-06-08T05:39:10.712Z,16.00
2017-06-08T05:41:38.884Z,16.10
2017-06-08T05:44:07.027Z,16.10
2017-06-08T05:46:35.155Z,16.20
2017-06-08T05:49:04.141Z,16.20
2017-06-08T05:51:32.289Z,16.20
2017-06-08T05:54:00.718Z,16.20
2017-06-08T05:56:28.791Z,16.10
2017-06-08T05:58:56.896Z,16.10
2017-06-08T06:01:25.010Z,16.10
2017-06-08T06:03:53.127Z,16.00
2017-06-08T06:06:21.263Z,16.10
2017-06-08T06:08:49.426Z,16.10
2017-06-08T06:11:17.539Z,16.10
2017-06-08T06:13:46.424Z,16.20
2017-06-08T06:16:14.579Z,16.20
2017-06-08T06:18:42.714Z,16.30
2017-06-08T06:21:10.904Z,16.20
2017-06-08T06:23:39.797Z,16.20
2017-06-08T06:26:07.907Z,16.20
2017-06-08T06:28:36.039Z,16.50
2017-06-08T06:31:04.381Z,16.60
2017-06-08T06:33:32.497Z,16.60
2017-06-08T06:36:00.675Z,16.70
2017-06-08T06:38:28.801Z,16.60
2017-06-08T06:40:57.698Z,17.10
2017-06-08T06:43:25.815Z,17.00
2017-06-08T06:45:53.934Z,17.10
2017-06-08T06:48:22.091Z,17.10
2017-06-08T06:50:50.219Z,17.20
2017-06-08T06:53:18.420Z,17.40
2017-06-08T06:55:46.563Z,17.70
2017-06-08T06:58:14.711Z,17.70
2017-06-08T07:00:42.844Z,17.80
2017-06-08T07:03:10.975Z,17.60
2017-06-08T07:05:39.199Z,17.50
2017-06-08T07:08:07.313Z,17.40
2017-06-08T07:10:35.440Z,17.20
2017-06-08T07:13:03.549Z,17.10
2017-06-08T07:15:31.703Z,17.10
2017-06-08T07:17:59.971Z,17.00
2017-06-08T07:20:28.135Z,16.80
2017-06-08T07:22:56.283Z,16.50
2017-06-08T07:25:24.416Z,16.30
2017-06-08T07:27:53.416Z,16.30
2017-06-08T07:30:21.539Z,16.20
2017-06-08T07:32:50.514Z,16.20
2017-06-08T07:35:19.591Z,16.20
2017-06-08T07:37:47.708Z,16.00
2017-06-08T07:40:16.799Z,16.00
2017-06-08T07:42:44.906Z,16.10
2017-06-08T07:45:13.025Z,16.10
2017-06-08T07:47:41.151Z,16.20
2017-06-08T07:50:09.310Z,16.30
2017-06-08T07:52:37.441Z,16.30
2017-06-08T07:55:05.666Z,16.20
2017-06-08T07:57:33.891Z,16.30
2017-06-08T08:00:02.868Z,16.40
2017-06-08T08:02:42.697Z,16.40
2017-06-08T08:05:10.898Z,16.40
2017-06-08T08:07:39.127Z,16.40
2017-06-08T08:10:07.255Z,16.10
2017-06-08T08:12:35.363Z,15.90
2017-06-08T08:15:03.470Z,15.70
2017-06-08T08:17:31.575Z,15.60
2017-06-08T08:19:59.704Z,15.70
2017-06-08T08:22:27.822Z,15.60
2017-06-08T08:24:55.978Z,15.80
2017-06-08T08:27:24.098Z,15.90
2017-06-08T08:29:52.234Z,16.10
2017-06-08T08:32:20.367Z,16.20
2017-06-08T08:34:48.484Z,16.20
2017-06-08T08:37:17.435Z,16.20
2017-06-08T08:39:45.573Z,16.20
2017-06-08T08:42:13.713Z,16.30
2017-06-08T08:44:41.905Z,16.30
2017-06-08T08:47:10.911Z,16.70
2017-06-08T08:49:39.079Z,16.70
2017-06-08T08:52:08.024Z,16.90
2017-06-08T08:54:36.147Z,16.90
2017-06-08T08:57:04.276Z,17.10
2017-06-08T08:59:32.458Z,17.10
2017-06-08T09:02:00.562Z,17.30
2017-06-08T09:04:28.679Z,17.40
2017-06-08T09:06:56.804Z,17.20
2017-06-08T09:09:24.935Z,17.20
2017-06-08T09:11:53.064Z,17.10
2017-06-08T09:14:21.186Z,17.30
2017-06-08T09:16:49.796Z,17.60
2017-06-08T09:19:17.975Z,18.10
2017-06-08T09:21:46.179Z,18.30
2017-06-08T09:24:14.310Z,18.60
2017-06-08T09:26:42.439Z,18.80
2017-06-08T09:29:10.583Z,19.20
2017-06-08T09:31:38.727Z,19.50
2017-06-08T09:34:06.855Z,19.70
2017-06-08T09:36:35.277Z,19.80
2017-06-08T09:39:03.455Z,20.10
2017-06-08T09:41:34.265Z,19.90
2017-06-08T09:44:02.372Z,19.90
2017-06-08T09:46:30.554Z,19.60
2017-06-08T09:48:58.711Z,19.20
2017-06-08T09:51:26.890Z,18.90
2017-06-08T09:53:54.983Z,18.60
2017-06-08T09:56:23.108Z,18.20
2017-06-08T09:58:51.250Z,17.80
2017-06-08T10:01:19.407Z,17.40
2017-06-08T10:03:47.626Z,17.30
2017-06-08T10:06:15.730Z,17.20
2017-06-08T10:08:44.651Z,17.50
2017-06-08T10:11:12.779Z,17.40
2017-06-08T10:13:42.967Z,17.80
2017-06-08T10:16:11.192Z,18.00
2017-06-08T10:18:39.405Z,18.20
2017-06-08T10:21:08.331Z,18.60
2017-06-08T10:23:36.425Z,18.50
2017-06-08T10:26:04.568Z,18.70
2017-06-08T10:28:32.748Z,18.60
2017-06-08T10:31:00.890Z,18.40
2017-06-08T10:33:29.807Z,18.20
2017-06-08T10:35:57.937Z,18.20
2017-06-08T10:38:26.059Z,18.40
2017-06-08T10:40:54.260Z,18.50
2017-06-08T10:43:26.013Z,18.50
2017-06-08T10:45:54.155Z,18.50
2017-06-08T10:48:22.303Z,18.40
2017-06-08T10:50:50.526Z,18.20
2017-06-08T10:53:18.644Z,17.90
2017-06-08T10:55:46.956Z,17.70
2017-06-08T10:58:15.227Z,17.50
2017-06-08T11:00:44.204Z,17.40
2017-06-08T11:03:12.296Z,17.40
2017-06-08T11:05:40.419Z,17.70
2017-06-08T11:08:08.528Z,18.10
2017-06-08T11:10:36.700Z,18.30
2017-06-08T11:13:04.865Z,18.30
2017-06-08T11:15:33.465Z,18.50
2017-06-08T11:18:01.559Z,18.20
2017-06-08T11:20:29.689Z,17.80
2017-06-08T11:22:58.716Z,17.60
2017-06-08T11:25:27.622Z,17.20
2017-06-08T11:27:55.897Z,17.20
2017-06-08T11:30:24.760Z,17.00
2017-06-08T11:32:52.981Z,17.00
2017-06-08T11:35:21.108Z,16.90
2017-06-08T11:37:49.225Z,16.70
2017-06-08T11:40:17.414Z,16.70
2017-06-08T11:42:45.539Z,16.80
2017-06-08T11:45:13.979Z,17.00
2017-06-08T11:47:42.087Z,16.80
2017-06-08T11:50:10.197Z,16.80
2017-06-08T11:52:38.314Z,17.00
2017-06-08T11:55:06.467Z,16.90
2017-06-08T11:57:34.559Z,16.90
2017-06-08T12:02:59.982Z,16.20
2017-06-08T12:05:28.850Z,16.00
2017-06-08T12:07:56.943Z,16.00
2017-06-08T12:10:25.091Z,16.30
2017-06-08T12:12:53.283Z,16.70
2017-06-08T12:15:21.448Z,17.00
2017-06-08T12:17:49.620Z,17.30
2017-06-08T12:20:17.782Z,17.40
2017-06-08T12:22:45.867Z,17.50
2017-06-08T12:25:14.769Z,18.10
2017-06-08T12:27:42.976Z,18.10
2017-06-08T12:30:11.071Z,18.60
2017-06-08T12:32:39.166Z,18.60
2017-06-08T12:35:07.295Z,18.60
2017-06-08T12:37:35.410Z,18.70
2017-06-08T12:40:03.575Z,18.70
2017-06-08T12:42:32.444Z,19.00
2017-06-08T12:45:00.552Z,19.00
2017-06-08T12:47:28.661Z,18.90
2017-06-08T12:49:57.564Z,18.50
2017-06-08T12:52:25.889Z,18.50
2017-06-08T12:54:53.971Z,18.60
2017-06-08T12:57:22.077Z,18.60
2017-06-08T12:59:50.319Z,18.60
2017-06-08T13:02:18.534Z,18.80
2017-06-08T13:04:47.451Z,18.80
2017-06-08T13:07:15.565Z,18.60
2017-06-08T13:09:43.723Z,18.40
2017-06-08T13:12:12.598Z,18.20
2017-06-08T13:14:40.724Z,18.20
2017-06-08T13:17:09.086Z,18.20
2017-06-08T13:19:37.200Z,18.00
2017-06-08T13:22:05.392Z,17.50
2017-06-08T13:24:33.521Z,17.10
2017-06-08T13:27:01.688Z,16.90
2017-06-08T13:29:31.720Z,16.80
2017-06-08T13:31:59.848Z,16.70
2017-06-08T13:34:27.958Z,16.70
2017-06-08T13:36:56.069Z,16.90
2017-06-08T13:39:24.424Z,17.00
2017-06-08T13:41:52.602Z,17.30
2017-06-08T13:44:20.741Z,17.50
2017-06-08T13:46:49.831Z,17.50
2017-06-08T13:49:17.951Z,17.60
2017-06-08T13:51:46.082Z,17.70
2017-06-08T13:54:14.203Z,17.70
2017-06-08T13:56:42.307Z,17.80
2017-06-08T13:59:10.439Z,17.80
2017-06-08T14:01:40.586Z,17.80
2017-06-08T14:04:08.718Z,17.90
2017-06-08T14:06:37.430Z,18.10
2017-06-08T14:09:05.546Z,18.30
2017-06-08T14:11:33.683Z,18.50
2017-06-08T14:14:03.494Z,18.80
2017-06-08T14:16:31.607Z,18.80
2017-06-08T14:18:59.945Z,18.80
2017-06-08T14:21:28.264Z,18.90
2017-06-08T14:23:56.396Z,18.90
2017-06-08T14:26:24.511Z,19.00
2017-06-08T14:28:52.651Z,19.00
2017-06-08T14:31:20.776Z,19.10
2017-06-08T14:33:48.894Z,19.20
2017-06-08T14:36:17.148Z,19.20
2017-06-08T14:38:45.315Z,19.30
2017-06-08T14:41:13.436Z,19.30
2017-06-08T14:43:41.535Z,19.40
2017-06-08T14:46:09.663Z,19.50
2017-06-08T14:48:37.794Z,19.40
2017-06-08T14:51:06.006Z,19.40
2017-06-08T14:53:34.163Z,19.40
2017-06-08T14:56:02.293Z,19.60
2017-06-08T14:58:30.411Z,19.60
2017-06-08T15:01:03.516Z,19.60
2017-06-08T15:03:31.674Z,19.60
2017-06-08T15:05:59.904Z,19.60
2017-06-08T15:08:28.058Z,19.70
2017-06-08T15:10:57.112Z,19.80
2017-06-08T15:13:25.265Z,19.80
2017-06-08T15:15:53.401Z,19.70
2017-06-08T15:18:21.762Z,19.60
2017-06-08T15:20:49.897Z,19.50
2017-06-08T15:23:18.810Z,19.40
2017-06-08T15:25:46.946Z,19.40
2017-06-08T15:28:15.047Z,19.40
2017-06-08T15:30:43.260Z,19.30
2017-06-08T15:33:11.369Z,19.10
2017-06-08T15:35:39.627Z,19.00
2017-06-08T15:38:07.852Z,18.90
2017-06-08T15:40:36.000Z,18.90
2017-06-08T15:43:04.223Z,19.10
2017-06-08T15:45:32.331Z,19.20
2017-06-08T15:48:00.540Z,19.40
2017-06-08T15:50:28.786Z,19.60
2017-06-08T15:52:56.897Z,19.60
2017-06-08T15:55:25.414Z,19.60
2017-06-08T15:57:53.501Z,19.50
2017-06-08T16:00:21.631Z,19.50
2017-06-08T16:02:50.670Z,19.50
2017-06-08T16:05:18.974Z,19.50
2017-06-08T16:10:40.185Z,19.60
2017-06-08T16:13:08.519Z,19.60
2017-06-08T16:15:38.092Z,19.60
2017-06-08T16:18:07.031Z,19.60
2017-06-08T16:20:36.135Z,19.60
2017-06-08T16:23:05.945Z,19.70
2017-06-08T16:25:35.278Z,19.80
2017-06-08T16:28:03.991Z,19.80
2017-06-08T16:30:32.690Z,19.90
2017-06-08T16:33:01.574Z,19.90
2017-06-08T16:35:29.798Z,20.00
2017-06-08T16:37:57.940Z,20.10
2017-06-08T16:40:26.088Z,20.20
2017-06-08T16:42:54.306Z,20.20
2017-06-08T16:45:22.589Z,20.20
2017-06-08T16:47:51.453Z,20.10
2017-06-08T16:50:19.614Z,20.10
2017-06-08T16:52:47.722Z,20.20
2017-06-08T16:55:15.911Z,20.30
2017-06-08T16:57:44.065Z,20.30
2017-06-08T17:00:13.075Z,20.40
2017-06-08T17:02:41.175Z,20.50
2017-06-08T17:05:16.708Z,20.40
2017-06-08T17:07:44.816Z,20.50
2017-06-08T17:10:13.718Z,20.40
2017-06-08T17:12:41.865Z,20.40
2017-06-08T17:15:09.962Z,20.40
2017-06-08T17:17:38.423Z,20.40
2017-06-08T17:20:12.692Z,20.40
2017-06-08T17:22:40.806Z,20.40
2017-06-08T17:25:08.926Z,20.30
2017-06-08T17:27:37.036Z,20.30
2017-06-08T17:30:05.392Z,20.30
2017-06-08T17:32:33.504Z,20.30
2017-06-08T17:35:01.771Z,20.30
2017-06-08T17:37:29.932Z,20.30
2017-06-08T17:39:58.173Z,20.30
2017-06-08T17:42:26.276Z,20.30
2017-06-08T17:44:55.240Z,20.30
2017-06-08T17:47:23.351Z,20.30
2017-06-08T17:49:51.460Z,20.20
2017-06-08T17:52:19.600Z,20.20
2017-06-08T17:54:47.748Z,20.30
2017-06-08T17:57:15.863Z,20.30
2017-06-08T17:59:44.911Z,20.30
2017-06-08T18:02:13.029Z,20.20
2017-06-08T18:04:41.187Z,20.10
2017-06-08T18:07:09.282Z,20.10
2017-06-08T18:09:37.432Z,19.90
2017-06-08T18:12:05.579Z,19.80
2017-06-08T18:14:33.671Z,19.80
2017-06-08T18:17:01.803Z,19.70
2017-06-08T18:19:30.001Z,19.60
2017-06-08T18:21:59.992Z,19.60
2017-06-08T18:24:28.110Z,19.50
2017-06-08T18:26:56.224Z,19.50
2017-06-08T18:29:25.764Z,19.40
2017-06-08T18:31:53.862Z,19.30
2017-06-08T18:34:21.994Z,19.30
2017-06-08T18:36:50.859Z,19.10
2017-06-08T18:39:18.976Z,19.10
2017-06-08T18:41:47.095Z,19.00
2017-06-08T18:44:15.250Z,19.00
2017-06-08T18:46:44.315Z,18.90
2017-06-08T18:49:12.428Z,18.90
2017-06-08T18:51:40.534Z,18.80
2017-06-08T18:54:09.619Z,18.70
2017-06-08T18:56:37.755Z,18.70
2017-06-08T18:59:05.897Z,18.60
2017-06-08T19:01:34.080Z,18.60
2017-06-08T19:04:02.963Z,18.70
2017-06-08T19:06:31.131Z,18.60
2017-06-08T19:08:59.251Z,18.70
2017-06-08T19:11:27.359Z,18.60
2017-06-08T19:13:58.910Z,18.60
2017-06-08T19:16:27.007Z,18.60
2017-06-08T19:18:55.910Z,18.50
2017-06-08T19:21:25.100Z,18.50
2017-06-08T19:23:53.518Z,18.50
2017-06-08T19:26:21.594Z,18.40
2017-06-08T19:28:49.699Z,18.40
2017-06-08T19:31:17.789Z,18.40
2017-06-08T19:33:46.791Z,18.40
2017-06-08T19:36:14.913Z,18.40
2017-06-08T19:38:43.938Z,18.40
2017-06-08T19:41:12.061Z,18.30
2017-06-08T19:43:40.998Z,18.30
2017-06-08T19:46:09.111Z,18.30
2017-06-08T19:48:37.228Z,18.30
2017-06-08T19:51:05.331Z,18.20
2017-06-08T19:53:33.445Z,18.20
2017-06-08T19:56:01.542Z,18.20
2017-06-08T19:58:29.638Z,18.00
2017-06-08T20:00:57.779Z,18.00
2017-06-08T20:03:26.790Z,18.00
2017-06-08T20:05:54.887Z,18.00
2017-06-08T20:11:27.009Z,17.90
2017-06-08T20:13:58.610Z,17.80
2017-06-08T20:16:31.576Z,17.60
2017-06-08T20:19:02.783Z,17.50
2017-06-08T20:21:35.789Z,17.40
2017-06-08T20:24:04.283Z,17.20
2017-06-08T20:26:36.161Z,17.00
2017-06-08T20:29:11.676Z,17.00
2017-06-08T20:31:42.831Z,17.00
2017-06-08T20:34:12.840Z,16.90
2017-06-08T20:36:44.359Z,16.90
2017-06-08T20:39:12.481Z,16.80
2017-06-08T20:41:46.672Z,16.80
2017-06-08T20:44:15.972Z,16.70
2017-06-08T20:46:46.558Z,16.60
2017-06-08T20:49:16.086Z,16.60
2017-06-08T20:51:47.014Z,16.60
2017-06-08T20:54:15.785Z,16.60
2017-06-08T20:56:43.899Z,16.60
2017-06-08T20:59:19.029Z,16.60
2017-06-08T21:01:48.638Z,16.60
2017-06-08T21:04:20.306Z,16.60
2017-06-08T21:06:52.371Z,16.60
2017-06-08T21:09:32.346Z,16.60
2017-06-08T21:12:06.558Z,16.50
2017-06-08T21:14:40.428Z,16.50
2017-06-08T21:20:26.557Z,16.50
2017-06-08T21:25:38.619Z,16.40
2017-06-08T21:28:10.214Z,16.50
2017-06-08T21:30:38.422Z,16.50
2017-06-08T21:33:07.490Z,16.50
2017-06-08T21:35:35.648Z,16.60
2017-06-08T21:38:05.990Z,16.60
2017-06-08T21:40:38.473Z,16.60
2017-06-08T21:43:07.882Z,16.60
2017-06-08T21:45:38.975Z,16.60
2017-06-08T21:48:09.953Z,16.60
2017-06-08T21:50:42.998Z,16.60
2017-06-08T21:53:11.579Z,16.50
2017-06-08T21:55:43.214Z,16.40
2017-06-08T21:58:15.510Z,16.40
2017-06-08T22:00:50.511Z,16.30
2017-06-08T22:06:15.640Z,16.20
2017-06-08T22:08:47.311Z,16.00
2017-06-08T22:11:23.006Z,15.90
2017-06-08T22:13:54.784Z,15.90
2017-06-08T22:16:23.974Z,15.90
2017-06-08T22:18:57.836Z,15.80
2017-06-08T22:21:30.527Z,15.80
2017-06-08T22:24:01.812Z,15.80
2017-06-08T22:26:31.652Z,15.80
2017-06-08T22:29:02.215Z,15.70
2017-06-08T22:31:32.176Z,15.70
2017-06-08T22:34:00.279Z,15.60
2017-06-08T22:36:28.394Z,15.60
2017-06-08T22:38:57.246Z,15.60
2017-06-08T22:41:28.955Z,15.60
2017-06-08T22:43:57.072Z,15.60
2017-06-08T22:46:26.489Z,15.70
2017-06-08T22:48:54.967Z,15.60
2017-06-08T22:51:29.993Z,15.60
2017-06-08T22:53:58.134Z,15.50
2017-06-08T22:56:27.125Z,15.50
2017-06-08T22:58:57.587Z,15.40
2017-06-08T23:01:25.905Z,15.50
2017-06-08T23:03:54.582Z,15.60
2017-06-08T23:06:23.689Z,15.60
2017-06-08T23:08:51.790Z,15.50
2017-06-08T23:11:19.907Z,15.40
2017-06-08T23:14:00.378Z,15.30
2017-06-08T23:16:28.520Z,15.20
2017-06-08T23:18:56.653Z,15.20
2017-06-08T23:21:24.761Z,15.10
2017-06-08T23:23:52.880Z,15.00
2017-06-08T23:26:20.971Z,15.00
2017-06-08T23:28:49.072Z,15.00
2017-06-08T23:31:19.131Z,14.90
2017-06-08T23:33:47.230Z,14.90
2017-06-08T23:36:15.331Z,14.80
2017-06-08T23:38:43.458Z,14.80
2017-06-08T23:41:11.568Z,14.70
2017-06-08T23:43:39.668Z,14.70
2017-06-08T23:46:07.781Z,14.70
2017-06-08T23:48:35.881Z,14.70
2017-06-08T23:51:03.974Z,14.70
2017-06-08T23:53:32.068Z,14.70
2017-06-08T23:56:00.186Z,14.60
2017-06-08T23:58:28.296Z,14.60
